Time;durP1;ratioP1;P1;durP2;ratioP2;P2;SDS_P1;SDS_P2;PMS_P1;PMS_P2;Temp;Humidity;BMP_temperature;BMP_pressure;BME280_temperature;BME280_humidity;BME280_pressure;Samples;Min_cycle;Max_cycle;Signal;HPM_P1;HPM_P2
2021/04/07 00:02:08;;;;;;;2.77;0.50;;;1.80;84.00;;;;;;5078153;28;20117;-71
2021/04/07 00:04:35;;;;;;;4.03;0.40;;;1.70;84.00;;;;;;5074551;28;20396;-71
2021/04/07 00:07:01;;;;;;;5.73;0.40;;;1.70;84.10;;;;;;5064880;28;20067;-78
2021/04/07 00:09:28;;;;;;;1.13;0.27;;;1.60;84.20;;;;;;5091485;28;20043;-77
2021/04/07 00:11:55;;;;;;;2.03;0.30;;;1.60;84.30;;;;;;5083391;28;20109;-71
2021/04/07 00:14:22;;;;;;;2.47;0.40;;;1.50;84.40;;;;;;5089952;28;20127;-71
2021/04/07 00:16:49;;;;;;;2.03;0.30;;;1.50;84.60;;;;;;5073126;28;20044;-78
2021/04/07 00:19:16;;;;;;;2.63;0.33;;;1.40;84.50;;;;;;5073732;28;20032;-71
2021/04/07 00:21:43;;;;;;;1.53;0.30;;;1.40;84.70;;;;;;5073203;28;20510;-71
2021/04/07 00:24:10;;;;;;;3.00;0.20;;;1.40;84.70;;;;;;5105315;28;20059;-71
2021/04/07 00:26:36;;;;;;;2.63;0.23;;;1.40;84.80;;;;;;5084219;28;20384;-71
2021/04/07 00:29:03;;;;;;;3.73;0.30;;;1.40;85.50;;;;;;5089429;28;20055;-71
2021/04/07 00:31:30;;;;;;;2.13;0.20;;;1.30;84.90;;;;;;5089243;28;20048;-71
2021/04/07 00:33:57;;;;;;;3.10;0.50;;;1.30;85.00;;;;;;5089785;28;20041;-74
2021/04/07 00:36:23;;;;;;;3.00;0.60;;;1.30;85.10;;;;;;5089498;28;20048;-71
2021/04/07 00:38:50;;;;;;;1.50;0.20;;;1.20;85.10;;;;;;5088745;28;20024;-71
2021/04/07 00:41:16;;;;;;;0.73;0.30;;;1.20;85.10;;;;;;5091184;28;20052;-71
2021/04/07 00:43:43;;;;;;;0.90;0.20;;;1.20;85.10;;;;;;5071461;28;20052;-71
2021/04/07 00:46:10;;;;;;;2.30;0.47;;;1.20;85.20;;;;;;5091564;28;20040;-78
2021/04/07 00:48:37;;;;;;;5.20;0.57;;;1.20;85.40;;;;;;5078014;28;20074;-78
2021/04/07 00:51:04;;;;;;;0.77;0.33;;;1.20;85.60;;;;;;5092177;28;20388;-78
2021/04/07 00:53:31;;;;;;;2.73;0.30;;;1.20;85.50;;;;;;5090623;28;20377;-71
2021/04/07 00:55:57;;;;;;;6.27;1.47;;;1.20;85.50;;;;;;5089072;28;20403;-71
2021/04/07 00:58:24;;;;;;;1.47;0.43;;;1.20;85.50;;;;;;5092225;28;20037;-71
2021/04/07 01:00:53;;;;;;;2.53;0.63;;;1.30;85.50;;;;;;5093261;28;20411;-71
2021/04/07 01:03:19;;;;;;;1.63;0.20;;;1.30;85.50;;;;;;5066982;28;20445;-71
2021/04/07 01:05:46;;;;;;;3.40;0.30;;;1.40;85.50;;;;;;5090900;28;20051;-77
2021/04/07 01:08:13;;;;;;;4.17;0.50;;;1.40;85.40;;;;;;5095995;28;20055;-77
2021/04/07 01:10:39;;;;;;;4.20;0.50;;;1.50;85.50;;;;;;5080212;28;20068;-78
2021/04/07 01:13:06;;;;;;;4.60;0.67;;;1.50;85.30;;;;;;5087473;28;20036;-78
2021/04/07 01:15:33;;;;;;;2.40;0.30;;;1.50;85.20;;;;;;5083592;28;20062;-77
2021/04/07 01:17:59;;;;;;;1.67;0.20;;;1.50;85.10;;;;;;5076191;28;20028;-78
2021/04/07 01:20:27;;;;;;;2.40;0.30;;;1.60;85.20;;;;;;5082894;28;20430;-77
2021/04/07 01:22:58;;;;;;;2.00;0.60;;;1.60;85.20;;;;;;5094593;28;20451;-78
2021/04/07 01:25:25;;;;;;;1.73;0.20;;;1.60;85.20;;;;;;5094509;28;20101;-78
2021/04/07 01:27:52;;;;;;;2.33;0.80;;;1.60;85.20;;;;;;5094169;28;20564;-78
2021/04/07 01:30:19;;;;;;;1.40;0.20;;;1.60;85.30;;;;;;5079979;28;20028;-78
2021/04/07 01:32:46;;;;;;;4.80;0.47;;;1.50;85.30;;;;;;5093962;28;20519;-78
2021/04/07 01:35:16;;;;;;;2.33;0.50;;;1.50;85.60;;;;;;5084134;28;20122;-78
2021/04/07 01:37:42;;;;;;;3.80;0.50;;;1.50;85.70;;;;;;5095442;28;20039;-78
2021/04/07 01:40:12;;;;;;;1.10;0.23;;;1.60;85.90;;;;;;5090316;28;20039;-78
2021/04/07 01:42:43;;;;;;;6.33;0.87;;;1.60;85.90;;;;;;5085617;28;20093;-72
2021/04/07 01:45:11;;;;;;;2.37;0.47;;;1.70;85.90;;;;;;5086719;28;20063;-72
2021/04/07 01:47:38;;;;;;;2.07;0.40;;;1.70;85.90;;;;;;5088721;28;20040;-71
2021/04/07 01:50:06;;;;;;;1.83;0.37;;;1.70;85.90;;;;;;5086285;28;20050;-71
2021/04/07 01:52:33;;;;;;;3.37;1.00;;;1.70;86.00;;;;;;5081866;28;20413;-78
2021/04/07 01:55:00;;;;;;;8.33;1.00;;;1.60;86.80;;;;;;5079927;28;20063;-78
2021/04/07 01:57:27;;;;;;;2.97;0.40;;;1.60;86.50;;;;;;5073495;28;20060;-78
2021/04/07 01:59:53;;;;;;;1.33;0.40;;;1.70;86.70;;;;;;5054080;28;20443;-78
2021/04/07 02:02:20;;;;;;;0.87;0.20;;;1.70;86.70;;;;;;5079669;28;20044;-78
2021/04/07 02:04:47;;;;;;;0.53;0.20;;;1.70;86.70;;;;;;5074497;28;20036;-78
2021/04/07 02:07:15;;;;;;;1.33;0.30;;;1.60;86.70;;;;;;5084703;28;20041;-71
2021/04/07 02:09:42;;;;;;;3.20;0.30;;;1.60;86.80;;;;;;5084802;28;20702;-71
2021/04/07 02:12:09;;;;;;;3.40;0.50;;;1.60;87.60;;;;;;5078285;28;20041;-78
2021/04/07 02:14:36;;;;;;;1.97;0.57;;;1.60;87.10;;;;;;5093697;28;20051;-78
2021/04/07 02:17:05;;;;;;;4.00;1.17;;;1.60;87.30;;;;;;5078655;28;20040;-78
2021/04/07 02:19:34;;;;;;;3.83;0.63;;;1.60;87.80;;;;;;5083071;28;20051;-78
2021/04/07 02:22:12;;;;;;;3.57;0.73;;;1.60;87.80;;;;;;5073496;28;20037;-71
2021/04/07 02:24:41;;;;;;;3.03;0.90;;;1.70;87.70;;;;;;5083620;28;20501;-71
2021/04/07 02:27:22;;;;;;;2.63;0.70;;;1.60;87.80;;;;;;5087401;28;20044;-72
2021/04/07 02:29:54;;;;;;;4.90;1.00;;;1.70;87.80;;;;;;5076690;28;20052;-71
2021/04/07 02:32:23;;;;;;;4.15;1.40;;;1.70;88.30;;;;;;5084369;28;20040;-71
2021/04/07 02:34:51;;;;;;;3.37;1.20;;;1.70;88.30;;;;;;5086975;28;20085;-77
2021/04/07 02:37:19;;;;;;;3.73;0.80;;;1.80;88.60;;;;;;5078008;28;20047;-77
2021/04/07 02:39:47;;;;;;;3.30;1.10;;;1.80;88.60;;;;;;5094054;28;20498;-77
2021/04/07 02:42:14;;;;;;;3.10;1.10;;;1.80;88.40;;;;;;5080523;28;20141;-78
2021/04/07 02:44:41;;;;;;;1.37;0.50;;;1.90;88.30;;;;;;5092423;28;20055;-72
2021/04/07 02:47:08;;;;;;;3.60;0.40;;;1.90;88.50;;;;;;5091360;28;20067;-72
2021/04/07 02:49:35;;;;;;;1.90;0.60;;;1.90;88.10;;;;;;5076015;28;20094;-78
2021/04/07 02:52:02;;;;;;;2.90;0.70;;;2.00;88.10;;;;;;5083273;28;20052;-78
2021/04/07 02:54:29;;;;;;;2.67;0.80;;;2.00;88.10;;;;;;5071733;28;20098;-79
2021/04/07 02:56:56;;;;;;;5.37;0.70;;;1.90;88.00;;;;;;5064257;28;20086;-72
2021/04/07 02:59:23;;;;;;;1.87;0.60;;;1.90;87.90;;;;;;5074975;28;20055;-72
2021/04/07 03:01:50;;;;;;;2.07;0.50;;;1.90;88.00;;;;;;5083247;28;20032;-71
2021/04/07 03:04:17;;;;;;;3.47;0.93;;;1.80;88.10;;;;;;5087892;28;20568;-72
2021/04/07 03:06:43;;;;;;;4.20;0.73;;;1.80;88.40;;;;;;5074055;28;20040;-71
2021/04/07 03:09:11;;;;;;;1.87;0.53;;;1.70;88.40;;;;;;5088254;28;20097;-72
2021/04/07 03:11:37;;;;;;;0.90;0.50;;;1.70;88.70;;;;;;5086334;28;20044;-71
2021/04/07 03:14:05;;;;;;;3.00;0.60;;;1.70;88.90;;;;;;5081413;28;20093;-71
2021/04/07 03:16:32;;;;;;;1.57;0.60;;;1.70;88.90;;;;;;5088266;28;20043;-71
2021/04/07 03:18:59;;;;;;;2.10;0.63;;;1.70;89.10;;;;;;5083629;28;20039;-71
2021/04/07 03:21:26;;;;;;;1.23;0.47;;;1.60;89.10;;;;;;5064734;28;20033;-71
2021/04/07 03:23:53;;;;;;;3.23;0.40;;;1.60;89.10;;;;;;5054318;28;20118;-72
2021/04/07 03:26:19;;;;;;;2.60;0.50;;;1.60;89.10;;;;;;5071018;28;20555;-71
2021/04/07 03:28:46;;;;;;;0.90;0.30;;;1.60;89.30;;;;;;5082902;28;20055;-78
2021/04/07 03:31:12;;;;;;;2.17;0.50;;;1.60;89.30;;;;;;5073063;28;20107;-78
2021/04/07 03:33:39;;;;;;;2.07;0.50;;;1.60;89.30;;;;;;5088118;28;20044;-79
2021/04/07 03:36:07;;;;;;;5.13;1.03;;;1.60;89.40;;;;;;5085829;28;20056;-79
2021/04/07 03:38:34;;;;;;;4.40;0.50;;;1.60;89.50;;;;;;5089496;28;20051;-79
2021/04/07 03:41:02;;;;;;;3.60;0.90;;;1.70;89.70;;;;;;5085007;28;20499;-78
2021/04/07 03:43:29;;;;;;;2.87;0.83;;;1.70;89.80;;;;;;5095987;28;20055;-78
2021/04/07 03:45:57;;;;;;;2.37;0.77;;;1.70;89.90;;;;;;5086851;28;20395;-78
2021/04/07 03:48:27;;;;;;;1.93;0.50;;;1.70;89.90;;;;;;5089601;28;20040;-78
2021/04/07 03:50:54;;;;;;;2.40;0.70;;;1.70;89.90;;;;;;5091524;28;20058;-78
2021/04/07 03:53:21;;;;;;;1.67;0.40;;;1.70;90.00;;;;;;5085500;28;20041;-77
2021/04/07 03:55:51;;;;;;;2.07;0.40;;;1.80;90.00;;;;;;5071750;28;20044;-78
2021/04/07 03:58:18;;;;;;;2.70;0.50;;;1.80;90.00;;;;;;5079434;28;20040;-77
2021/04/07 04:00:46;;;;;;;1.17;0.60;;;1.80;90.00;;;;;;5079372;28;20033;-78
2021/04/07 04:03:13;;;;;;;4.27;0.43;;;1.80;90.10;;;;;;5085242;28;20040;-77
2021/04/07 04:05:40;;;;;;;1.70;0.53;;;1.80;90.10;;;;;;5082956;28;20036;-72
2021/04/07 04:08:07;;;;;;;1.23;0.50;;;1.70;90.10;;;;;;5087432;28;20033;-73
2021/04/07 04:10:34;;;;;;;1.60;0.40;;;1.70;90.20;;;;;;5077379;28;20036;-71
2021/04/07 04:13:02;;;;;;;3.00;0.30;;;1.70;90.10;;;;;;5083915;28;20044;-72
2021/04/07 04:15:29;;;;;;;1.00;0.30;;;1.70;90.10;;;;;;5082301;28;20149;-72
2021/04/07 04:17:55;;;;;;;1.30;0.33;;;1.70;90.20;;;;;;5088774;28;20488;-72
2021/04/07 04:20:22;;;;;;;1.40;0.57;;;1.70;90.30;;;;;;5084184;28;20050;-72
2021/04/07 04:22:49;;;;;;;2.13;0.40;;;1.60;90.30;;;;;;5087433;28;20040;-72
2021/04/07 04:25:19;;;;;;;1.63;0.40;;;1.60;90.30;;;;;;5081732;28;20503;-72
2021/04/07 04:27:46;;;;;;;0.90;0.30;;;1.60;90.30;;;;;;5086534;28;20044;-72
2021/04/07 04:30:20;;;;;;;1.77;0.50;;;1.60;90.40;;;;;;5071809;28;20068;-71
2021/04/07 04:32:48;;;;;;;3.53;0.57;;;1.60;90.40;;;;;;5082428;28;20385;-77
2021/04/07 04:35:15;;;;;;;3.67;0.60;;;1.60;90.50;;;;;;5077557;28;20040;-79
2021/04/07 04:37:42;;;;;;;1.87;0.57;;;1.50;90.50;;;;;;5084023;28;20032;-79
2021/04/07 04:40:10;;;;;;;2.90;0.53;;;1.50;90.50;;;;;;5094871;28;20404;-79
2021/04/07 04:42:37;;;;;;;3.20;0.73;;;1.50;90.60;;;;;;5078386;28;20089;-78
2021/04/07 04:45:08;;;;;;;2.00;0.50;;;1.50;90.90;;;;;;5094999;28;20097;-77
2021/04/07 04:47:36;;;;;;;1.47;0.50;;;1.60;90.60;;;;;;5090032;28;20037;-76
2021/04/07 04:50:07;;;;;;;2.27;0.73;;;1.50;90.70;;;;;;5092652;28;20078;-76
2021/04/07 04:52:35;;;;;;;1.67;0.50;;;1.50;90.80;;;;;;5085900;28;20036;-71
2021/04/07 04:55:06;;;;;;;1.13;0.40;;;1.60;90.80;;;;;;5082919;28;20054;-71
2021/04/07 04:57:33;;;;;;;0.73;0.30;;;1.60;90.90;;;;;;5080464;28;20051;-71
2021/04/07 05:00:00;;;;;;;2.67;0.40;;;1.60;90.90;;;;;;5084124;28;20037;-71
2021/04/07 05:02:26;;;;;;;1.27;0.30;;;1.60;90.90;;;;;;5091059;28;20067;-71
2021/04/07 05:04:53;;;;;;;5.07;0.53;;;1.60;90.90;;;;;;5083151;28;20040;-71
2021/04/07 05:07:19;;;;;;;3.87;0.90;;;1.60;90.90;;;;;;5076730;28;20044;-74
2021/04/07 05:09:46;;;;;;;4.53;0.57;;;1.60;91.10;;;;;;5090930;28;20051;-74
2021/04/07 05:12:17;;;;;;;1.97;0.60;;;1.60;91.10;;;;;;5082272;28;20058;-74
2021/04/07 05:14:45;;;;;;;2.37;0.50;;;1.60;91.10;;;;;;5078873;28;20097;-74
2021/04/07 05:17:11;;;;;;;3.30;0.70;;;1.60;91.20;;;;;;5091574;28;20496;-74
2021/04/07 05:19:38;;;;;;;3.13;0.63;;;1.60;91.20;;;;;;5090685;28;20032;-73
2021/04/07 05:22:05;;;;;;;2.47;0.60;;;1.60;91.30;;;;;;5078824;28;20430;-73
2021/04/07 05:24:31;;;;;;;2.33;0.60;;;1.60;91.40;;;;;;5083833;28;20500;-73
2021/04/07 05:26:58;;;;;;;5.63;1.10;;;1.60;91.40;;;;;;5081326;28;20105;-72
2021/04/07 05:29:25;;;;;;;1.90;0.80;;;1.60;91.50;;;;;;5091698;28;20059;-73
2021/04/07 05:31:56;;;;;;;2.20;0.80;;;1.60;91.60;;;;;;5085902;28;20040;-72
2021/04/07 05:34:23;;;;;;;2.57;0.70;;;1.60;91.70;;;;;;5074781;28;20041;-70
2021/04/07 05:36:50;;;;;;;5.27;0.90;;;1.60;91.80;;;;;;5088325;28;20036;-70
2021/04/07 05:39:16;;;;;;;2.03;0.70;;;1.70;91.90;;;;;;5075124;28;20036;-70
2021/04/07 05:41:43;;;;;;;4.40;1.40;;;1.70;91.90;;;;;;5082631;28;20123;-70
2021/04/07 05:44:09;;;;;;;2.20;0.77;;;1.70;91.90;;;;;;5087362;28;20056;-70
2021/04/07 05:46:36;;;;;;;2.20;0.80;;;1.80;92.00;;;;;;5081057;28;20059;-70
2021/04/07 05:49:03;;;;;;;1.87;0.77;;;1.80;92.00;;;;;;5087571;28;20128;-73
2021/04/07 05:51:30;;;;;;;2.40;0.90;;;1.80;92.00;;;;;;5088774;28;20039;-72
2021/04/07 05:53:57;;;;;;;2.10;0.70;;;1.90;92.10;;;;;;5085835;28;20067;-73
2021/04/07 05:56:29;;;;;;;1.58;0.60;;;1.90;92.00;;;;;;5074506;28;20149;-73
2021/04/07 05:58:56;;;;;;;2.93;0.90;;;2.00;92.10;;;;;;5074422;28;20043;-70
2021/04/07 06:01:22;;;;;;;2.70;0.60;;;2.00;92.00;;;;;;5082459;28;20044;-73
2021/04/07 06:03:51;;;;;;;1.90;0.70;;;2.00;92.00;;;;;;5077105;28;20036;-75
2021/04/07 06:06:19;;;;;;;1.83;0.60;;;1.90;91.90;;;;;;5087995;28;20058;-75
2021/04/07 06:08:47;;;;;;;1.53;0.60;;;1.80;91.90;;;;;;5080358;28;20040;-75
2021/04/07 06:11:16;;;;;;;2.40;1.00;;;1.80;91.90;;;;;;5088399;28;20044;-73
2021/04/07 06:13:43;;;;;;;2.30;0.67;;;1.60;92.00;;;;;;5086530;28;20047;-74
2021/04/07 06:16:09;;;;;;;1.90;1.10;;;1.60;92.10;;;;;;5081938;28;20041;-75
2021/04/07 06:18:36;;;;;;;2.53;1.00;;;1.60;92.20;;;;;;5080505;28;20048;-76
2021/04/07 06:21:03;;;;;;;1.40;0.70;;;1.70;92.20;;;;;;5086796;28;20036;-75
2021/04/07 06:23:30;;;;;;;2.07;1.07;;;1.80;92.20;;;;;;5086852;28;20444;-75
2021/04/07 06:25:56;;;;;;;1.83;0.80;;;1.80;92.20;;;;;;5072724;28;20491;-74
2021/04/07 06:28:23;;;;;;;2.23;1.10;;;1.80;92.20;;;;;;5078726;28;20098;-74
2021/04/07 06:30:49;;;;;;;2.50;1.00;;;1.90;92.20;;;;;;5083169;28;20491;-75
2021/04/07 06:33:28;;;;;;;2.53;0.83;;;2.00;92.30;;;;;;5082992;28;20036;-75
2021/04/07 06:36:06;;;;;;;2.73;1.33;;;2.10;92.30;;;;;;5071167;28;20128;-74
2021/04/07 06:38:35;;;;;;;2.40;1.10;;;2.20;92.30;;;;;;5083831;28;20043;-74
2021/04/07 06:41:03;;;;;;;2.77;1.27;;;2.20;92.30;;;;;;5080345;28;20028;-72
2021/04/07 06:43:33;;;;;;;4.03;1.13;;;2.30;92.30;;;;;;5039773;28;921828;-71
2021/04/07 06:46:00;;;;;;;4.03;1.40;;;2.40;92.30;;;;;;5082111;28;20103;-70
2021/04/07 06:48:28;;;;;;;2.87;1.10;;;2.50;92.30;;;;;;5079313;28;20032;-71
2021/04/07 06:50:55;;;;;;;1.77;0.73;;;2.50;92.20;;;;;;5085059;28;20070;-71
2021/04/07 06:53:26;;;;;;;2.50;1.00;;;2.50;92.20;;;;;;5080122;28;20036;-73
2021/04/07 06:55:54;;;;;;;1.80;0.90;;;2.60;92.20;;;;;;5089849;28;20488;-72
2021/04/07 06:58:20;;;;;;;5.03;1.17;;;2.60;92.30;;;;;;5080498;28;20047;-75
2021/04/07 07:00:47;;;;;;;3.40;1.00;;;2.70;92.30;;;;;;5062548;28;20047;-75
2021/04/07 07:03:16;;;;;;;3.57;1.07;;;2.80;92.30;;;;;;5080088;28;20133;-71
2021/04/07 07:05:47;;;;;;;3.13;1.03;;;2.90;92.30;;;;;;5082858;28;20048;-70
2021/04/07 07:08:18;;;;;;;2.97;0.80;;;3.00;92.30;;;;;;5070313;28;20048;-70
2021/04/07 07:10:49;;;;;;;2.80;0.70;;;3.10;92.20;;;;;;5077106;28;20054;-70
2021/04/07 07:13:21;;;;;;;3.17;1.40;;;3.20;92.30;;;;;;5080923;28;20040;-71
2021/04/07 07:15:49;;;;;;;2.80;0.90;;;3.40;92.30;;;;;;5075238;28;20071;-74
2021/04/07 07:18:28;;;;;;;2.73;0.80;;;3.50;92.30;;;;;;5087529;28;20040;-74
2021/04/07 07:20:56;;;;;;;3.53;1.00;;;3.70;92.50;;;;;;5082109;28;20453;-75
2021/04/07 07:23:31;;;;;;;2.97;0.80;;;3.80;92.20;;;;;;5083176;28;20044;-75
2021/04/07 07:26:04;;;;;;;2.83;0.77;;;3.90;92.10;;;;;;5080478;28;20046;-74
2021/04/07 07:28:41;;;;;;;4.67;1.40;;;4.00;92.10;;;;;;5075160;28;20049;-74
2021/04/07 07:31:31;;;;;;;2.27;0.80;;;3.90;92.10;;;;;;5081871;28;20051;-75
2021/04/07 07:34:00;;;;;;;3.70;0.90;;;4.00;92.10;;;;;;5071463;28;20056;-75
2021/04/07 07:36:28;;;;;;;3.83;0.63;;;4.00;92.20;;;;;;5073835;28;20037;-75
2021/04/07 07:38:56;;;;;;;3.57;1.17;;;4.10;92.30;;;;;;5075856;28;20040;-75
2021/04/07 07:41:35;;;;;;;4.10;1.27;;;4.20;92.20;;;;;;5090386;28;20056;-76
2021/04/07 07:44:17;;;;;;;5.17;1.10;;;4.30;92.20;;;;;;5072147;28;20113;-76
2021/04/07 07:46:45;;;;;;;3.40;0.60;;;4.30;92.20;;;;;;5091783;28;20051;-76
2021/04/07 07:49:19;;;;;;;3.30;0.80;;;4.40;92.20;;;;;;5088341;28;20043;-76
2021/04/07 07:51:50;;;;;;;2.00;0.60;;;4.50;92.20;;;;;;5088766;28;20044;-77
2021/04/07 07:54:22;;;;;;;2.73;0.70;;;4.70;92.30;;;;;;5087945;28;20036;-77
2021/04/07 07:56:50;;;;;;;3.20;0.55;;;4.80;92.10;;;;;;5089466;28;20036;-76
2021/04/07 07:59:29;;;;;;;6.20;1.00;;;4.80;92.30;;;;;;5091159;28;20051;-79
2021/04/07 08:01:56;;;;;;;4.83;1.07;;;4.90;92.10;;;;;;5083066;28;20377;-77
2021/04/07 08:04:24;;;;;;;2.13;0.60;;;4.80;92.10;;;;;;5072067;28;20136;-77
2021/04/07 08:06:50;;;;;;;2.83;0.90;;;4.90;92.10;;;;;;5074791;28;20434;-79
2021/04/07 08:09:17;;;;;;;5.00;0.63;;;4.90;92.20;;;;;;5062177;28;20061;-77
2021/04/07 08:11:47;;;;;;;3.40;0.60;;;4.90;92.30;;;;;;5079864;28;20369;-77
2021/04/07 08:14:16;;;;;;;7.90;0.80;;;4.90;92.30;;;;;;5091102;28;20082;-76
2021/04/07 08:16:46;;;;;;;3.37;0.50;;;5.00;92.40;;;;;;5072832;28;20121;-75
2021/04/07 08:19:14;;;;;;;2.30;0.40;;;5.00;92.40;;;;;;5073049;28;20040;-76
2021/04/07 08:21:45;;;;;;;3.80;0.40;;;5.10;92.40;;;;;;5088301;28;20093;-76
2021/04/07 08:24:12;;;;;;;3.57;0.57;;;5.20;92.40;;;;;;5082086;28;20040;-76
2021/04/07 08:26:42;;;;;;;7.13;0.70;;;5.20;92.40;;;;;;5068913;28;20074;-77
2021/04/07 08:29:09;;;;;;;7.67;0.60;;;5.20;92.40;;;;;;5081717;28;20059;-78
2021/04/07 08:31:39;;;;;;;5.83;0.70;;;5.30;92.40;;;;;;5092118;28;20476;-76
2021/04/07 08:34:10;;;;;;;7.30;0.80;;;5.20;92.30;;;;;;5072557;28;20135;-76
2021/04/07 08:36:41;;;;;;;7.03;0.67;;;5.10;92.30;;;;;;5092410;28;20036;-76
2021/04/07 08:39:11;;;;;;;3.37;0.50;;;5.00;92.30;;;;;;5071299;28;20049;-77
2021/04/07 08:41:39;;;;;;;5.37;0.43;;;5.10;92.50;;;;;;5085498;28;20044;-77
2021/04/07 08:44:06;;;;;;;4.13;0.60;;;5.10;92.50;;;;;;5080038;28;20170;-76
2021/04/07 08:46:46;;;;;;;9.63;1.27;;;5.20;92.50;;;;;;5082364;28;20526;-76
2021/04/07 08:49:34;;;;;;;5.47;0.70;;;5.30;92.40;;;;;;5072974;28;20063;-76
2021/04/07 08:52:22;;;;;;;7.90;1.20;;;5.40;92.40;;;;;;5069172;28;20040;-75
2021/04/07 08:54:51;;;;;;;5.50;0.50;;;5.50;92.40;;;;;;5084724;28;20042;-76
2021/04/07 08:57:36;;;;;;;8.07;1.13;;;5.70;92.50;;;;;;5090564;28;20036;-77
2021/04/07 09:00:14;;;;;;;8.87;1.07;;;5.90;92.30;;;;;;5060846;28;20097;-77
2021/04/07 09:02:51;;;;;;;10.80;1.77;;;6.10;92.10;;;;;;5091334;28;20107;-82
2021/04/07 09:05:32;;;;;;;8.97;1.20;;;6.20;92.00;;;;;;5091111;28;20442;-76
2021/04/07 09:08:00;;;;;;;6.57;1.17;;;6.40;91.90;;;;;;5087829;28;20531;-76
2021/04/07 09:10:39;;;;;;;12.80;2.53;;;6.40;91.80;;;;;;5091631;28;20032;-76
2021/04/07 09:13:08;;;;;;;9.13;1.47;;;6.50;91.70;;;;;;5077218;28;20051;-76
2021/04/07 09:15:50;;;;;;;15.57;1.83;;;6.50;91.70;;;;;;5079005;28;20081;-76
2021/04/07 09:18:18;;;;;;;15.20;1.63;;;6.50;91.50;;;;;;5077924;28;20075;-76
2021/04/07 09:20:51;;;;;;;9.20;1.90;;;6.50;91.40;;;;;;5086591;28;20091;-75
2021/04/07 09:23:32;;;;;;;16.45;2.85;;;6.50;91.30;;;;;;5089294;28;20065;-76
2021/04/07 09:26:10;;;;;;;11.63;1.67;;;6.60;91.40;;;;;;5073173;28;20111;-76
2021/04/07 09:28:45;;;;;;;7.17;1.00;;;6.70;91.20;;;;;;5095771;28;20036;-77
2021/04/07 09:31:14;;;;;;;12.87;1.97;;;6.70;91.20;;;;;;5084294;28;20119;-77
2021/04/07 09:33:44;;;;;;;12.17;1.53;;;6.90;91.10;;;;;;5085882;28;20396;-74
2021/04/07 09:36:12;;;;;;;11.03;1.10;;;7.00;91.10;;;;;;5082877;28;20504;-72
2021/04/07 09:38:50;;;;;;;16.13;2.20;;;7.20;90.90;;;;;;5069739;28;20113;-72
2021/04/07 09:41:29;;;;;;;10.20;1.50;;;7.30;90.80;;;;;;5076072;28;20041;-72
2021/04/07 09:43:56;;;;;;;12.13;2.50;;;7.40;90.50;;;;;;5076228;28;20048;-72
2021/04/07 09:46:25;;;;;;;10.03;1.70;;;7.60;90.70;;;;;;5075603;28;20044;-73
2021/04/07 09:48:53;;;;;;;11.73;1.90;;;7.70;90.20;;;;;;5075943;28;20044;-73
2021/04/07 09:51:28;;;;;;;11.50;1.70;;;7.70;90.20;;;;;;5086791;28;20055;-73
2021/04/07 09:54:11;;;;;;;10.77;1.60;;;7.50;90.30;;;;;;5087203;28;20040;-73
2021/04/07 09:56:46;;;;;;;6.93;1.17;;;7.40;90.30;;;;;;5072673;28;20571;-73
2021/04/07 09:59:13;;;;;;;11.80;1.33;;;7.50;90.50;;;;;;5077323;28;20628;-72
2021/04/07 10:01:40;;;;;;;9.02;1.50;;;7.30;90.20;;;;;;5056191;28;20098;-73
2021/04/07 10:04:07;;;;;;;6.43;1.07;;;7.00;89.10;;;;;;5081824;28;20063;-72
2021/04/07 10:06:34;;;;;;;7.73;0.90;;;6.60;90.00;;;;;;5076431;28;20040;-72
2021/04/07 10:09:00;;;;;;;12.37;1.80;;;6.40;90.50;;;;;;5065405;28;20061;-72
2021/04/07 10:11:28;;;;;;;7.77;1.13;;;6.10;90.40;;;;;;5073796;28;20412;-72
2021/04/07 10:13:59;;;;;;;5.87;1.03;;;6.00;90.70;;;;;;5082753;28;20043;-76
2021/04/07 10:16:31;;;;;;;4.60;0.90;;;6.00;90.90;;;;;;5092795;28;20044;-77
2021/04/07 10:19:00;;;;;;;6.37;1.20;;;6.00;91.00;;;;;;5065512;28;20046;-78
2021/04/07 10:21:27;;;;;;;6.60;1.30;;;6.10;91.00;;;;;;5094136;28;20036;-76
2021/04/07 10:23:57;;;;;;;5.53;1.10;;;6.20;91.10;;;;;;5087878;28;20063;-71
2021/04/07 10:26:24;;;;;;;4.83;1.13;;;6.60;90.80;;;;;;5086337;28;20048;-71
2021/04/07 10:29:01;;;;;;;12.63;2.10;;;6.90;90.30;;;;;;5073555;28;20090;-72
2021/04/07 10:31:29;;;;;;;8.90;1.33;;;7.40;89.80;;;;;;5089716;28;20040;-72
2021/04/07 10:34:08;;;;;;;9.63;0.90;;;7.30;89.50;;;;;;5082765;28;20044;-72
2021/04/07 10:36:37;;;;;;;8.80;1.10;;;7.30;89.90;;;;;;5078139;28;20048;-72
2021/04/07 10:39:15;;;;;;;8.87;1.20;;;7.30;89.90;;;;;;5086755;28;20040;-72
2021/04/07 10:41:48;;;;;;;12.17;1.40;;;7.30;90.00;;;;;;5088459;28;20499;-72
2021/04/07 10:44:26;;;;;;;7.67;1.57;;;7.40;89.70;;;;;;5076184;28;20074;-71
2021/04/07 10:46:53;;;;;;;7.50;1.43;;;7.60;88.30;;;;;;5083247;28;20085;-72
2021/04/07 10:49:21;;;;;;;9.60;1.57;;;7.70;86.90;;;;;;5079799;28;20075;-72
2021/04/07 10:52:06;;;;;;;7.57;1.37;;;8.00;85.50;;;;;;5089455;28;20040;-72
2021/04/07 10:54:33;;;;;;;10.27;1.37;;;8.20;84.10;;;;;;5085102;28;20033;-72
2021/04/07 10:57:09;;;;;;;12.20;2.20;;;8.10;84.10;;;;;;5081587;28;20044;-77
2021/04/07 10:59:37;;;;;;;17.93;3.50;;;7.80;83.70;;;;;;5078811;28;20500;-72
2021/04/07 11:02:16;;;;;;;14.23;2.23;;;7.40;84.90;;;;;;5080025;28;20056;-73
2021/04/07 11:04:43;;;;;;;9.67;2.23;;;7.00;86.50;;;;;;5070275;28;20114;-71
2021/04/07 11:07:15;;;;;;;12.17;1.53;;;6.60;86.80;;;;;;5083530;28;20058;-71
2021/04/07 11:09:46;;;;;;;7.97;1.20;;;6.30;88.10;;;;;;5087185;28;20044;-70
2021/04/07 11:12:15;;;;;;;10.77;1.70;;;6.10;89.00;;;;;;5083302;28;20480;-72
2021/04/07 11:14:50;;;;;;;6.20;1.30;;;6.10;89.50;;;;;;5076042;28;20036;-72
2021/04/07 11:17:18;;;;;;;8.40;1.30;;;6.20;89.70;;;;;;5067125;28;20043;-72
2021/04/07 11:19:46;;;;;;;11.37;1.33;;;6.30;89.70;;;;;;5085211;28;20140;-72
2021/04/07 11:22:13;;;;;;;8.37;1.10;;;6.50;89.50;;;;;;5081027;28;20101;-72
2021/04/07 11:24:39;;;;;;;13.07;1.23;;;6.60;89.30;;;;;;5077692;28;20426;-73
2021/04/07 11:27:09;;;;;;;10.60;2.10;;;6.80;89.10;;;;;;5068482;28;20097;-73
2021/04/07 11:29:37;;;;;;;12.47;1.40;;;7.10;88.80;;;;;;5080148;28;20039;-73
2021/04/07 11:32:09;;;;;;;13.27;1.60;;;7.30;88.70;;;;;;5078624;28;20047;-73
2021/04/07 11:35:03;;;;;;;18.50;1.87;;;7.20;87.00;;;;;;5077152;28;20123;-72
2021/04/07 11:37:38;;;;;;;8.33;1.60;;;6.90;86.20;;;;;;5073570;28;20036;-74
2021/04/07 11:43:00;;;;;;;9.43;1.00;;;6.50;88.00;;;;;;5081758;28;20519;-73
2021/04/07 11:45:27;;;;;;;7.77;1.17;;;6.50;88.60;;;;;;5083374;28;20093;-74
2021/04/07 11:47:54;;;;;;;5.90;0.70;;;6.50;89.50;;;;;;5085041;28;20059;-74
2021/04/07 11:50:21;;;;;;;8.00;1.23;;;6.60;88.60;;;;;;5089506;28;20101;-74
2021/04/07 11:52:47;;;;;;;14.13;1.37;;;6.60;87.70;;;;;;5086851;28;20032;-73
2021/04/07 11:55:14;;;;;;;13.77;2.17;;;6.70;86.70;;;;;;5082506;28;20511;-73
2021/04/07 11:57:41;;;;;;;11.10;1.67;;;6.70;87.10;;;;;;5093845;28;20035;-73
2021/04/07 12:00:10;;;;;;;12.23;1.70;;;6.90;87.00;;;;;;5072404;28;20119;-73
2021/04/07 12:02:39;;;;;;;9.93;1.13;;;7.10;86.10;;;;;;5070133;28;20052;-74
2021/04/07 12:05:08;;;;;;;6.57;1.47;;;7.20;86.30;;;;;;5084825;28;20503;-73
2021/04/07 12:07:35;;;;;;;17.20;2.13;;;7.20;85.70;;;;;;5069788;28;20052;-73
2021/04/07 12:10:04;;;;;;;11.20;1.50;;;7.20;84.50;;;;;;5061445;28;20136;-73
2021/04/07 12:12:31;;;;;;;8.07;1.60;;;7.10;85.10;;;;;;5088124;28;20545;-75
2021/04/07 12:14:58;;;;;;;13.60;1.90;;;6.90;85.40;;;;;;5087270;28;20043;-77
2021/04/07 12:17:24;;;;;;;12.20;1.67;;;6.70;85.10;;;;;;5063956;28;20040;-75
2021/04/07 12:19:51;;;;;;;12.83;2.27;;;6.60;85.10;;;;;;5067197;28;20042;-75
2021/04/07 12:22:17;;;;;;;7.03;0.87;;;6.50;84.90;;;;;;5079293;28;20085;-74
2021/04/07 12:24:44;;;;;;;7.37;1.07;;;6.40;84.00;;;;;;5077744;28;20052;-74
2021/04/07 12:27:11;;;;;;;11.87;1.20;;;6.40;84.90;;;;;;5072756;28;20048;-74
2021/04/07 12:29:37;;;;;;;5.73;1.60;;;6.40;84.60;;;;;;5089779;28;20036;-75
2021/04/07 12:32:06;;;;;;;8.57;1.23;;;6.60;84.70;;;;;;5069804;28;20113;-76
2021/04/07 12:34:36;;;;;;;14.50;1.43;;;6.60;84.20;;;;;;5073434;28;20051;-74
2021/04/07 12:37:03;;;;;;;6.73;1.27;;;6.60;83.30;;;;;;5075850;28;20040;-74
2021/04/07 12:39:30;;;;;;;5.63;1.00;;;6.50;82.20;;;;;;5083398;28;20044;-75
2021/04/07 12:41:59;;;;;;;9.30;1.20;;;6.40;81.40;;;;;;5063064;28;20442;-74
2021/04/07 12:44:29;;;;;;;4.30;1.10;;;6.50;81.60;;;;;;5081484;28;20052;-74
2021/04/07 12:46:55;;;;;;;7.90;1.03;;;6.60;81.90;;;;;;5071638;28;20041;-73
2021/04/07 12:49:22;;;;;;;7.70;0.90;;;6.70;81.40;;;;;;5078580;28;20044;-74
2021/04/07 12:51:49;;;;;;;5.67;0.90;;;6.80;81.40;;;;;;5072278;28;20047;-75
2021/04/07 12:54:15;;;;;;;7.43;1.03;;;6.80;80.40;;;;;;5078896;28;20514;-75
2021/04/07 12:56:42;;;;;;;6.77;1.07;;;6.90;81.10;;;;;;5072291;28;20060;-74
2021/04/07 12:59:10;;;;;;;6.70;0.53;;;7.10;81.00;;;;;;5091113;28;20089;-74
2021/04/07 13:01:40;;;;;;;6.37;0.73;;;7.30;81.70;;;;;;5086932;28;20377;-75
2021/04/07 13:04:07;;;;;;;6.97;1.00;;;7.50;81.00;;;;;;5088910;28;20043;-75
2021/04/07 13:06:33;;;;;;;5.77;0.90;;;7.50;79.70;;;;;;5087923;28;20109;-75
2021/04/07 13:09:00;;;;;;;7.80;0.97;;;7.40;77.60;;;;;;5094356;28;20048;-76